createdAt,value
2023-02-28T00:03:57.079Z,4.97
2023-02-28T00:14:21.076Z,0.00
2023-02-28T00:19:36.427Z,6.73
2023-02-28T00:24:42.662Z,2.83
2023-02-28T00:29:57.191Z,0.77
2023-02-28T00:35:09.332Z,1.35
2023-02-28T00:40:19.801Z,3.10
2023-02-28T00:45:25.300Z,2.17
2023-02-28T00:50:56.938Z,0.90
2023-02-28T00:56:09.713Z,4.50
2023-02-28T01:01:15.771Z,3.05
2023-02-28T01:06:19.761Z,0.80
2023-02-28T01:16:40.717Z,2.60
2023-02-28T01:21:52.063Z,7.87
2023-02-28T01:26:56.451Z,1.40
2023-02-28T01:32:03.781Z,2.17
2023-02-28T01:37:19.443Z,4.00
2023-02-28T01:42:26.827Z,2.13
2023-02-28T01:47:35.820Z,3.33
2023-02-28T01:52:45.171Z,1.97
2023-02-28T01:57:55.785Z,2.00
2023-02-28T02:03:01.384Z,3.53
2023-02-28T02:08:25.004Z,4.27
2023-02-28T02:13:36.475Z,0.87
2023-02-28T02:18:47.285Z,5.07
2023-02-28T02:24:05.547Z,1.47
2023-02-28T02:29:25.422Z,3.43
2023-02-28T02:34:39.640Z,3.30
2023-02-28T02:39:47.295Z,2.77
2023-02-28T02:44:51.533Z,2.93
2023-02-28T02:54:58.663Z,4.07
2023-02-28T03:00:12.043Z,2.47
2023-02-28T03:05:19.918Z,6.00
2023-02-28T03:10:48.498Z,0.77
2023-02-28T03:16:08.846Z,2.07
2023-02-28T03:21:23.453Z,2.00
2023-02-28T03:26:44.028Z,2.37
2023-02-28T03:32:13.122Z,4.00
2023-02-28T03:37:36.928Z,2.20
2023-02-28T03:42:46.409Z,3.65
2023-02-28T03:47:54.129Z,1.73
2023-02-28T03:53:02.598Z,6.43
2023-02-28T03:58:10.876Z,9.47
2023-02-28T04:03:14.489Z,8.40
2023-02-28T04:08:19.168Z,3.03
2023-02-28T04:13:24.735Z,3.83
2023-02-28T04:18:41.872Z,9.43
2023-02-28T04:24:11.731Z,3.53
2023-02-28T04:29:16.623Z,6.40
2023-02-28T04:34:26.796Z,8.13
2023-02-28T04:39:38.186Z,3.23
2023-02-28T04:44:53.697Z,6.90
2023-02-28T04:49:57.662Z,4.67
2023-02-28T05:00:43.078Z,6.50
2023-02-28T05:05:47.179Z,4.90
2023-02-28T05:10:52.692Z,4.03
2023-02-28T05:21:35.668Z,11.27
2023-02-28T05:26:46.119Z,4.43
2023-02-28T05:31:54.582Z,3.30
2023-02-28T05:37:24.158Z,4.10
2023-02-28T05:47:49.803Z,0.97
2023-02-28T05:53:05.345Z,3.87
2023-02-28T05:58:13.515Z,4.53
2023-02-28T06:08:21.621Z,5.93
2023-02-28T06:13:25.475Z,16.30
2023-02-28T06:18:38.516Z,2.58
2023-02-28T06:23:45.538Z,9.03
2023-02-28T06:28:49.166Z,9.33
2023-02-28T06:33:53.448Z,5.40
2023-02-28T06:39:24.319Z,8.47
2023-02-28T06:44:39.806Z,5.07
2023-02-28T06:49:47.734Z,9.33
2023-02-28T06:55:01.149Z,8.60
2023-02-28T07:00:08.942Z,11.47
2023-02-28T07:05:16.700Z,9.83
2023-02-28T07:10:23.533Z,13.60
2023-02-28T07:15:27.248Z,10.87
2023-02-28T07:20:41.785Z,8.13
2023-02-28T07:25:50.496Z,10.35
2023-02-28T07:30:57.684Z,10.50
2023-02-28T07:36:10.852Z,4.90
2023-02-28T07:41:15.941Z,14.13
2023-02-28T07:46:30.964Z,15.63
2023-02-28T07:51:40.140Z,14.47
2023-02-28T08:02:04.878Z,17.73
2023-02-28T08:07:16.586Z,8.70
2023-02-28T08:12:40.268Z,8.33
2023-02-28T08:17:57.964Z,8.50
2023-02-28T08:23:12.707Z,6.63
2023-02-28T08:28:28.804Z,18.23
2023-02-28T08:33:35.484Z,9.87
2023-02-28T08:38:43.232Z,10.00
2023-02-28T08:43:49.997Z,9.73
2023-02-28T08:49:00.620Z,6.30
2023-02-28T08:54:06.015Z,9.47
2023-02-28T08:59:12.500Z,15.67
2023-02-28T09:04:25.164Z,9.30
2023-02-28T09:09:32.946Z,11.50
2023-02-28T09:19:47.761Z,9.17
2023-02-28T09:24:58.500Z,13.23
2023-02-28T09:30:02.884Z,10.63
2023-02-28T09:35:14.282Z,17.27
2023-02-28T09:40:22.836Z,19.40
2023-02-28T09:45:32.554Z,10.70
2023-02-28T09:50:45.590Z,11.53
2023-02-28T09:55:59.140Z,14.13
2023-02-28T10:01:13.330Z,9.90
2023-02-28T10:06:24.107Z,10.77
2023-02-28T10:11:29.544Z,14.70
2023-02-28T10:16:49.236Z,14.47
2023-02-28T10:22:06.351Z,12.53
2023-02-28T10:27:58.939Z,16.13
2023-02-28T10:33:08.148Z,15.63
2023-02-28T10:38:26.047Z,10.23
2023-02-28T10:43:34.178Z,15.45
2023-02-28T10:48:46.525Z,8.68
2023-02-28T10:54:01.869Z,12.10
2023-02-28T10:59:45.507Z,11.57
2023-02-28T11:04:51.579Z,7.28
2023-02-28T11:09:59.105Z,10.60
2023-02-28T11:15:28.260Z,13.95
2023-02-28T11:20:36.998Z,19.25
2023-02-28T11:25:52.369Z,15.32
2023-02-28T11:31:07.853Z,15.23
2023-02-28T11:36:16.882Z,10.45
2023-02-28T11:41:36.218Z,14.75
2023-02-28T11:46:52.212Z,15.20
2023-02-28T11:52:05.312Z,10.90
2023-02-28T11:57:29.720Z,14.68
2023-02-28T12:02:40.264Z,15.05
2023-02-28T12:07:53.090Z,14.63
2023-02-28T12:13:09.119Z,9.93
2023-02-28T12:18:18.886Z,14.10
2023-02-28T12:23:44.843Z,16.58
2023-02-28T12:28:53.692Z,16.38
2023-02-28T12:34:03.657Z,13.88
2023-02-28T12:39:11.387Z,11.48
2023-02-28T12:44:21.254Z,15.20
2023-02-28T12:49:34.544Z,13.48
2023-02-28T12:54:52.324Z,9.48
2023-02-28T13:00:01.868Z,15.15
2023-02-28T13:05:18.407Z,12.57
2023-02-28T13:10:29.312Z,12.43
2023-02-28T13:15:41.714Z,6.93
2023-02-28T13:20:54.334Z,12.88
2023-02-28T13:26:07.724Z,14.52
2023-02-28T13:31:29.335Z,15.80
2023-02-28T13:36:37.813Z,16.30
2023-02-28T13:41:51.103Z,12.13
2023-02-28T13:47:15.729Z,14.88
2023-02-28T13:52:30.391Z,14.13
2023-02-28T13:57:50.331Z,8.88
2023-02-28T14:03:21.175Z,11.88
2023-02-28T14:08:28.427Z,13.15
2023-02-28T14:13:48.120Z,14.90
2023-02-28T14:18:55.256Z,14.55
2023-02-28T14:24:26.538Z,8.02
2023-02-28T14:29:41.308Z,10.85
2023-02-28T14:39:54.011Z,7.43
2023-02-28T14:45:03.689Z,7.07
2023-02-28T14:50:10.773Z,13.07
2023-02-28T14:55:27.682Z,12.55
2023-02-28T15:00:35.148Z,10.95
2023-02-28T15:05:41.716Z,11.57
2023-02-28T15:10:51.865Z,13.73
2023-02-28T15:16:02.661Z,10.45
2023-02-28T15:21:19.144Z,9.27
2023-02-28T15:26:28.316Z,14.95
2023-02-28T15:31:55.339Z,9.23
2023-02-28T15:37:02.088Z,23.60
2023-02-28T15:42:22.540Z,14.70
2023-02-28T15:47:34.163Z,13.70
2023-02-28T15:52:42.807Z,12.77
2023-02-28T15:57:50.871Z,14.40
2023-02-28T16:02:56.052Z,14.23
2023-02-28T16:08:00.342Z,13.75
2023-02-28T16:13:15.120Z,14.25
2023-02-28T16:18:29.181Z,16.50
2023-02-28T16:23:36.102Z,13.40
2023-02-28T16:28:53.106Z,18.70
2023-02-28T16:34:00.600Z,17.02
2023-02-28T16:39:09.123Z,10.50
2023-02-28T16:44:36.195Z,16.20
2023-02-28T16:49:39.510Z,12.85
2023-02-28T16:54:47.655Z,10.48
2023-02-28T16:59:54.684Z,12.27
2023-02-28T17:05:00.653Z,19.30
2023-02-28T17:10:10.569Z,25.33
2023-02-28T17:15:20.801Z,16.93
2023-02-28T17:20:32.110Z,24.67
2023-02-28T17:25:37.513Z,28.07
2023-02-28T17:30:52.832Z,30.50
2023-02-28T17:36:06.019Z,16.27
2023-02-28T17:41:10.972Z,21.83
2023-02-28T17:51:34.120Z,24.97
2023-02-28T17:56:37.170Z,18.93
2023-02-28T18:01:41.462Z,19.40
2023-02-28T18:06:48.557Z,22.97
2023-02-28T18:11:52.912Z,32.03
2023-02-28T18:17:00.790Z,17.53
2023-02-28T18:22:20.356Z,27.25
2023-02-28T18:27:59.463Z,21.30
2023-02-28T18:33:32.957Z,21.40
2023-02-28T18:38:53.656Z,17.90
2023-02-28T18:44:19.822Z,22.50
2023-02-28T18:49:31.048Z,18.63
2023-02-28T18:54:37.744Z,17.02
2023-02-28T18:59:56.649Z,13.43
2023-02-28T19:05:08.154Z,22.57
2023-02-28T19:10:31.514Z,20.37
2023-02-28T19:15:47.179Z,16.67
2023-02-28T19:20:53.206Z,12.03
2023-02-28T19:26:01.712Z,10.17
2023-02-28T19:31:05.921Z,14.13
2023-02-28T19:36:15.307Z,19.35
2023-02-28T19:41:33.424Z,23.00
2023-02-28T19:46:42.071Z,14.80
2023-02-28T19:51:51.773Z,10.68
2023-02-28T19:57:16.979Z,10.03
2023-02-28T20:02:27.310Z,17.60
2023-02-28T20:07:33.522Z,18.65
2023-02-28T20:12:43.545Z,19.57
2023-02-28T20:17:49.379Z,16.50
2023-02-28T20:23:01.028Z,18.57
2023-02-28T20:28:08.292Z,19.03
2023-02-28T20:33:14.480Z,20.17
2023-02-28T20:38:26.669Z,13.13
2023-02-28T20:43:36.760Z,11.53
2023-02-28T20:48:51.542Z,17.83
2023-02-28T20:59:41.233Z,15.60
2023-02-28T21:04:54.115Z,10.73
2023-02-28T21:10:02.687Z,15.90
2023-02-28T21:15:16.132Z,19.30
2023-02-28T21:20:33.937Z,15.45
2023-02-28T21:25:50.626Z,15.47
2023-02-28T21:31:05.824Z,22.87
2023-02-28T21:41:35.617Z,13.07
2023-02-28T21:46:42.267Z,10.13
2023-02-28T21:51:46.487Z,12.23
2023-02-28T21:56:52.648Z,17.73
2023-02-28T22:01:58.853Z,11.53
2023-02-28T22:07:03.560Z,13.20
2023-02-28T22:12:14.454Z,11.13
2023-02-28T22:17:35.705Z,4.07
2023-02-28T22:22:42.169Z,15.87
2023-02-28T22:27:49.011Z,15.00
2023-02-28T22:32:55.240Z,12.40
2023-02-28T22:38:00.300Z,10.90
2023-02-28T22:43:12.988Z,12.60
2023-02-28T22:48:18.531Z,14.00
2023-02-28T22:53:25.027Z,13.10
2023-02-28T22:58:34.702Z,8.27
2023-02-28T23:03:38.126Z,11.37
2023-02-28T23:08:47.820Z,17.90
2023-02-28T23:14:02.318Z,21.77
2023-02-28T23:19:11.937Z,14.57
2023-02-28T23:24:18.435Z,14.27
2023-02-28T23:29:25.451Z,16.97
2023-02-28T23:34:40.742Z,19.87
2023-02-28T23:39:45.775Z,17.33
2023-02-28T23:44:54.486Z,11.37
2023-02-28T23:49:59.355Z,19.10
2023-02-28T23:55:07.810Z,21.03
